sensor_id;sensor_type;location;lat;lon;timestamp;P1;durP1;ratioP1;P2;durP2;ratioP2
13347;SDS011;6743;49.934;9.138;2024-01-30T00:00:50;2.47;;;1.97;;
13347;SDS011;6743;49.934;9.138;2024-01-30T00:03:18;2.17;;;2.07;;
13347;SDS011;6743;49.934;9.138;2024-01-30T00:05:57;2.60;;;2.40;;
13347;SDS011;6743;49.934;9.138;2024-01-30T00:08:24;3.10;;;2.33;;
13347;SDS011;6743;49.934;9.138;2024-01-30T00:10:53;3.00;;;2.80;;
13347;SDS011;6743;49.934;9.138;2024-01-30T00:13:24;2.00;;;1.90;;
13347;SDS011;6743;49.934;9.138;2024-01-30T00:15:51;2.63;;;2.20;;
13347;SDS011;6743;49.934;9.138;2024-01-30T00:18:21;2.63;;;2.20;;
13347;SDS011;6743;49.934;9.138;2024-01-30T00:20:55;3.03;;;2.43;;
13347;SDS011;6743;49.934;9.138;2024-01-30T00:23:24;2.00;;;1.90;;
13347;SDS011;6743;49.934;9.138;2024-01-30T00:25:50;2.90;;;2.67;;
13347;SDS011;6743;49.934;9.138;2024-01-30T00:28:19;3.77;;;2.37;;
13347;SDS011;6743;49.934;9.138;2024-01-30T00:30:46;3.20;;;2.97;;
13347;SDS011;6743;49.934;9.138;2024-01-30T00:33:13;3.20;;;2.30;;
13347;SDS011;6743;49.934;9.138;2024-01-30T00:35:45;3.07;;;2.43;;
13347;SDS011;6743;49.934;9.138;2024-01-30T00:38:14;2.53;;;2.20;;
13347;SDS011;6743;49.934;9.138;2024-01-30T00:40:44;3.07;;;2.80;;
13347;SDS011;6743;49.934;9.138;2024-01-30T00:43:13;1.97;;;1.80;;
13347;SDS011;6743;49.934;9.138;2024-01-30T00:46:00;2.60;;;2.40;;
13347;SDS011;6743;49.934;9.138;2024-01-30T00:48:30;2.57;;;2.37;;
13347;SDS011;6743;49.934;9.138;2024-01-30T00:51:07;2.60;;;2.00;;
13347;SDS011;6743;49.934;9.138;2024-01-30T00:53:33;5.83;;;3.07;;
13347;SDS011;6743;49.934;9.138;2024-01-30T00:56:03;3.60;;;2.73;;
13347;SDS011;6743;49.934;9.138;2024-01-30T00:58:43;1.77;;;1.67;;
13347;SDS011;6743;49.934;9.138;2024-01-30T01:01:33;3.83;;;2.60;;
13347;SDS011;6743;49.934;9.138;2024-01-30T01:04:00;2.47;;;2.23;;
13347;SDS011;6743;49.934;9.138;2024-01-30T01:06:27;2.57;;;2.13;;
13347;SDS011;6743;49.934;9.138;2024-01-30T01:08:53;2.07;;;1.97;;
13347;SDS011;6743;49.934;9.138;2024-01-30T01:11:19;2.30;;;1.97;;
13347;SDS011;6743;49.934;9.138;2024-01-30T01:13:45;1.67;;;1.57;;
13347;SDS011;6743;49.934;9.138;2024-01-30T01:16:11;2.47;;;1.43;;
13347;SDS011;6743;49.934;9.138;2024-01-30T01:18:37;2.90;;;2.57;;
13347;SDS011;6743;49.934;9.138;2024-01-30T01:21:04;2.40;;;2.20;;
13347;SDS011;6743;49.934;9.138;2024-01-30T01:23:30;4.73;;;2.80;;
13347;SDS011;6743;49.934;9.138;2024-01-30T01:25:56;2.90;;;2.63;;
13347;SDS011;6743;49.934;9.138;2024-01-30T01:28:22;2.53;;;2.33;;
13347;SDS011;6743;49.934;9.138;2024-01-30T01:30:48;2.33;;;2.13;;
13347;SDS011;6743;49.934;9.138;2024-01-30T01:33:14;2.47;;;2.20;;
13347;SDS011;6743;49.934;9.138;2024-01-30T01:35:40;2.63;;;2.43;;
13347;SDS011;6743;49.934;9.138;2024-01-30T01:38:07;2.30;;;2.13;;
13347;SDS011;6743;49.934;9.138;2024-01-30T01:40:32;2.37;;;2.17;;
13347;SDS011;6743;49.934;9.138;2024-01-30T01:42:58;3.43;;;2.37;;
13347;SDS011;6743;49.934;9.138;2024-01-30T01:45:28;3.33;;;2.17;;
13347;SDS011;6743;49.934;9.138;2024-01-30T01:47:54;2.57;;;2.13;;
13347;SDS011;6743;49.934;9.138;2024-01-30T01:50:20;2.63;;;2.33;;
13347;SDS011;6743;49.934;9.138;2024-01-30T01:52:47;1.87;;;1.77;;
13347;SDS011;6743;49.934;9.138;2024-01-30T01:55:15;2.80;;;2.37;;
13347;SDS011;6743;49.934;9.138;2024-01-30T01:57:42;2.57;;;1.87;;
13347;SDS011;6743;49.934;9.138;2024-01-30T02:00:09;2.50;;;2.13;;
13347;SDS011;6743;49.934;9.138;2024-01-30T02:02:36;1.97;;;1.87;;
13347;SDS011;6743;49.934;9.138;2024-01-30T02:05:02;2.60;;;2.37;;
13347;SDS011;6743;49.934;9.138;2024-01-30T02:07:29;2.30;;;2.10;;
13347;SDS011;6743;49.934;9.138;2024-01-30T02:09:55;2.33;;;1.80;;
13347;SDS011;6743;49.934;9.138;2024-01-30T02:12:21;2.30;;;1.63;;
13347;SDS011;6743;49.934;9.138;2024-01-30T02:14:47;2.27;;;2.07;;
13347;SDS011;6743;49.934;9.138;2024-01-30T02:17:15;1.83;;;1.73;;
13347;SDS011;6743;49.934;9.138;2024-01-30T02:19:41;2.23;;;2.00;;
13347;SDS011;6743;49.934;9.138;2024-01-30T02:22:08;2.23;;;2.10;;
13347;SDS011;6743;49.934;9.138;2024-01-30T02:24:35;1.60;;;1.50;;
13347;SDS011;6743;49.934;9.138;2024-01-30T02:27:01;1.33;;;1.33;;
13347;SDS011;6743;49.934;9.138;2024-01-30T02:29:27;2.10;;;2.00;;
13347;SDS011;6743;49.934;9.138;2024-01-30T02:31:53;2.07;;;1.97;;
13347;SDS011;6743;49.934;9.138;2024-01-30T02:34:19;2.90;;;2.73;;
13347;SDS011;6743;49.934;9.138;2024-01-30T02:36:46;2.40;;;2.07;;
13347;SDS011;6743;49.934;9.138;2024-01-30T02:39:13;1.83;;;1.73;;
13347;SDS011;6743;49.934;9.138;2024-01-30T02:41:39;1.67;;;1.57;;
13347;SDS011;6743;49.934;9.138;2024-01-30T02:44:05;2.17;;;2.00;;
13347;SDS011;6743;49.934;9.138;2024-01-30T02:46:31;4.47;;;2.00;;
13347;SDS011;6743;49.934;9.138;2024-01-30T02:48:57;2.03;;;1.93;;
13347;SDS011;6743;49.934;9.138;2024-01-30T02:51:23;1.70;;;1.70;;
13347;SDS011;6743;49.934;9.138;2024-01-30T02:53:49;2.67;;;2.10;;
13347;SDS011;6743;49.934;9.138;2024-01-30T02:56:15;3.67;;;2.67;;
13347;SDS011;6743;49.934;9.138;2024-01-30T02:58:41;2.33;;;2.13;;
13347;SDS011;6743;49.934;9.138;2024-01-30T03:01:07;3.27;;;3.00;;
13347;SDS011;6743;49.934;9.138;2024-01-30T03:03:33;3.53;;;2.43;;
13347;SDS011;6743;49.934;9.138;2024-01-30T03:06:01;2.03;;;1.93;;
13347;SDS011;6743;49.934;9.138;2024-01-30T03:08:27;5.43;;;2.60;;
13347;SDS011;6743;49.934;9.138;2024-01-30T03:10:53;2.33;;;2.13;;
13347;SDS011;6743;49.934;9.138;2024-01-30T03:13:21;2.53;;;2.33;;
13347;SDS011;6743;49.934;9.138;2024-01-30T03:15:48;2.07;;;1.97;;
13347;SDS011;6743;49.934;9.138;2024-01-30T03:18:14;2.47;;;2.33;;
13347;SDS011;6743;49.934;9.138;2024-01-30T03:20:40;4.40;;;3.03;;
13347;SDS011;6743;49.934;9.138;2024-01-30T03:23:06;2.10;;;1.97;;
13347;SDS011;6743;49.934;9.138;2024-01-30T03:25:32;3.30;;;2.57;;
13347;SDS011;6743;49.934;9.138;2024-01-30T03:27:58;2.90;;;2.17;;
13347;SDS011;6743;49.934;9.138;2024-01-30T03:30:25;2.60;;;2.20;;
13347;SDS011;6743;49.934;9.138;2024-01-30T03:32:51;2.07;;;1.90;;
13347;SDS011;6743;49.934;9.138;2024-01-30T03:35:18;2.17;;;2.00;;
13347;SDS011;6743;49.934;9.138;2024-01-30T03:37:44;3.50;;;2.20;;
13347;SDS011;6743;49.934;9.138;2024-01-30T03:40:10;3.40;;;2.93;;
13347;SDS011;6743;49.934;9.138;2024-01-30T03:42:37;2.63;;;2.43;;
13347;SDS011;6743;49.934;9.138;2024-01-30T03:45:03;3.17;;;2.40;;
13347;SDS011;6743;49.934;9.138;2024-01-30T03:47:31;1.47;;;1.40;;
13347;SDS011;6743;49.934;9.138;2024-01-30T03:49:57;1.67;;;1.67;;
13347;SDS011;6743;49.934;9.138;2024-01-30T03:52:23;1.80;;;1.77;;
13347;SDS011;6743;49.934;9.138;2024-01-30T03:54:49;3.93;;;2.30;;
13347;SDS011;6743;49.934;9.138;2024-01-30T03:57:15;2.03;;;1.90;;
13347;SDS011;6743;49.934;9.138;2024-01-30T03:59:41;2.60;;;2.33;;
13347;SDS011;6743;49.934;9.138;2024-01-30T04:02:07;1.90;;;1.63;;
13347;SDS011;6743;49.934;9.138;2024-01-30T04:04:34;2.13;;;2.03;;
13347;SDS011;6743;49.934;9.138;2024-01-30T04:07:00;2.10;;;2.00;;
13347;SDS011;6743;49.934;9.138;2024-01-30T04:09:26;2.70;;;2.50;;
13347;SDS011;6743;49.934;9.138;2024-01-30T04:11:53;3.13;;;2.43;;
13347;SDS011;6743;49.934;9.138;2024-01-30T04:14:19;4.40;;;2.13;;
13347;SDS011;6743;49.934;9.138;2024-01-30T04:16:45;2.60;;;2.33;;
13347;SDS011;6743;49.934;9.138;2024-01-30T04:19:11;3.40;;;2.13;;
13347;SDS011;6743;49.934;9.138;2024-01-30T04:21:38;1.77;;;1.67;;
13347;SDS011;6743;49.934;9.138;2024-01-30T04:24:04;2.67;;;2.47;;
13347;SDS011;6743;49.934;9.138;2024-01-30T04:26:31;2.37;;;2.17;;
13347;SDS011;6743;49.934;9.138;2024-01-30T04:28:57;2.17;;;1.97;;
13347;SDS011;6743;49.934;9.138;2024-01-30T04:31:23;3.10;;;2.80;;
13347;SDS011;6743;49.934;9.138;2024-01-30T04:33:49;2.17;;;2.07;;
13347;SDS011;6743;49.934;9.138;2024-01-30T04:36:15;2.20;;;2.00;;
13347;SDS011;6743;49.934;9.138;2024-01-30T04:38:41;2.40;;;2.20;;
13347;SDS011;6743;49.934;9.138;2024-01-30T04:41:07;1.73;;;1.63;;
13347;SDS011;6743;49.934;9.138;2024-01-30T04:43:33;2.60;;;2.40;;
13347;SDS011;6743;49.934;9.138;2024-01-30T04:45:59;1.50;;;1.47;;
13347;SDS011;6743;49.934;9.138;2024-01-30T04:48:25;4.57;;;2.67;;
13347;SDS011;6743;49.934;9.138;2024-01-30T04:50:51;2.03;;;1.93;;
13347;SDS011;6743;49.934;9.138;2024-01-30T04:53:17;2.47;;;2.27;;
13347;SDS011;6743;49.934;9.138;2024-01-30T04:55:44;1.90;;;1.77;;
13347;SDS011;6743;49.934;9.138;2024-01-30T04:58:10;3.97;;;2.27;;
13347;SDS011;6743;49.934;9.138;2024-01-30T05:00:36;2.53;;;2.33;;
13347;SDS011;6743;49.934;9.138;2024-01-30T05:03:02;2.73;;;2.50;;
13347;SDS011;6743;49.934;9.138;2024-01-30T05:05:29;2.00;;;1.90;;
13347;SDS011;6743;49.934;9.138;2024-01-30T05:07:55;2.37;;;2.17;;
13347;SDS011;6743;49.934;9.138;2024-01-30T05:10:21;2.13;;;2.03;;
13347;SDS011;6743;49.934;9.138;2024-01-30T05:12:47;2.30;;;2.20;;
13347;SDS011;6743;49.934;9.138;2024-01-30T05:15:13;3.53;;;2.50;;
13347;SDS011;6743;49.934;9.138;2024-01-30T05:17:40;2.27;;;2.13;;
13347;SDS011;6743;49.934;9.138;2024-01-30T05:20:06;3.27;;;2.90;;
13347;SDS011;6743;49.934;9.138;2024-01-30T05:22:34;2.20;;;2.00;;
13347;SDS011;6743;49.934;9.138;2024-01-30T05:25:00;2.57;;;2.00;;
13347;SDS011;6743;49.934;9.138;2024-01-30T05:27:26;1.70;;;1.57;;
13347;SDS011;6743;49.934;9.138;2024-01-30T05:29:53;2.57;;;2.37;;
13347;SDS011;6743;49.934;9.138;2024-01-30T05:32:18;1.87;;;1.63;;
13347;SDS011;6743;49.934;9.138;2024-01-30T05:34:44;2.57;;;2.37;;
13347;SDS011;6743;49.934;9.138;2024-01-30T05:37:10;1.73;;;1.63;;
13347;SDS011;6743;49.934;9.138;2024-01-30T05:39:39;2.57;;;2.37;;
13347;SDS011;6743;49.934;9.138;2024-01-30T05:42:05;2.30;;;2.10;;
13347;SDS011;6743;49.934;9.138;2024-01-30T05:44:31;1.63;;;1.53;;
13347;SDS011;6743;49.934;9.138;2024-01-30T05:46:58;1.73;;;1.63;;
13347;SDS011;6743;49.934;9.138;2024-01-30T05:49:24;1.87;;;1.77;;
13347;SDS011;6743;49.934;9.138;2024-01-30T05:51:50;1.63;;;1.53;;
13347;SDS011;6743;49.934;9.138;2024-01-30T05:54:16;1.83;;;1.57;;
13347;SDS011;6743;49.934;9.138;2024-01-30T05:56:42;1.87;;;1.77;;
13347;SDS011;6743;49.934;9.138;2024-01-30T05:59:08;2.00;;;1.80;;
13347;SDS011;6743;49.934;9.138;2024-01-30T06:01:34;1.60;;;1.30;;
13347;SDS011;6743;49.934;9.138;2024-01-30T06:04:01;2.67;;;2.47;;
13347;SDS011;6743;49.934;9.138;2024-01-30T06:06:27;1.90;;;1.63;;
13347;SDS011;6743;49.934;9.138;2024-01-30T06:08:54;4.17;;;2.30;;
13347;SDS011;6743;49.934;9.138;2024-01-30T06:11:21;2.00;;;1.83;;
13347;SDS011;6743;49.934;9.138;2024-01-30T06:13:47;1.83;;;1.73;;
13347;SDS011;6743;49.934;9.138;2024-01-30T06:16:13;4.93;;;2.20;;
13347;SDS011;6743;49.934;9.138;2024-01-30T06:18:39;2.63;;;2.43;;
13347;SDS011;6743;49.934;9.138;2024-01-30T06:21:06;2.87;;;2.63;;
13347;SDS011;6743;49.934;9.138;2024-01-30T06:23:32;2.17;;;1.60;;
13347;SDS011;6743;49.934;9.138;2024-01-30T06:25:58;2.30;;;2.13;;
13347;SDS011;6743;49.934;9.138;2024-01-30T06:28:24;1.93;;;1.83;;
13347;SDS011;6743;49.934;9.138;2024-01-30T06:30:50;1.93;;;1.73;;
13347;SDS011;6743;49.934;9.138;2024-01-30T06:33:16;1.50;;;1.40;;
13347;SDS011;6743;49.934;9.138;2024-01-30T06:35:42;4.27;;;3.03;;
13347;SDS011;6743;49.934;9.138;2024-01-30T06:38:11;3.20;;;3.00;;
13347;SDS011;6743;49.934;9.138;2024-01-30T06:40:38;3.50;;;2.63;;
13347;SDS011;6743;49.934;9.138;2024-01-30T06:43:04;2.00;;;1.90;;
13347;SDS011;6743;49.934;9.138;2024-01-30T06:45:30;2.40;;;2.20;;
13347;SDS011;6743;49.934;9.138;2024-01-30T06:47:56;3.63;;;2.07;;
13347;SDS011;6743;49.934;9.138;2024-01-30T06:50:22;2.07;;;1.93;;
13347;SDS011;6743;49.934;9.138;2024-01-30T06:52:48;2.33;;;2.23;;
13347;SDS011;6743;49.934;9.138;2024-01-30T06:55:15;3.17;;;2.53;;
13347;SDS011;6743;49.934;9.138;2024-01-30T06:57:41;1.80;;;1.70;;
13347;SDS011;6743;49.934;9.138;2024-01-30T07:00:07;1.67;;;1.57;;
13347;SDS011;6743;49.934;9.138;2024-01-30T07:02:34;1.87;;;1.77;;
13347;SDS011;6743;49.934;9.138;2024-01-30T07:05:01;3.87;;;2.80;;
13347;SDS011;6743;49.934;9.138;2024-01-30T07:07:30;1.93;;;1.83;;
13347;SDS011;6743;49.934;9.138;2024-01-30T07:09:57;5.93;;;2.30;;
13347;SDS011;6743;49.934;9.138;2024-01-30T07:12:24;2.23;;;2.13;;
13347;SDS011;6743;49.934;9.138;2024-01-30T07:14:51;2.30;;;2.20;;
13347;SDS011;6743;49.934;9.138;2024-01-30T07:17:18;1.50;;;1.40;;
13347;SDS011;6743;49.934;9.138;2024-01-30T07:19:44;2.57;;;2.37;;
13347;SDS011;6743;49.934;9.138;2024-01-30T07:22:11;2.50;;;1.93;;
13347;SDS011;6743;49.934;9.138;2024-01-30T07:24:41;2.23;;;2.03;;
13347;SDS011;6743;49.934;9.138;2024-01-30T07:27:09;1.87;;;1.80;;
13347;SDS011;6743;49.934;9.138;2024-01-30T07:29:36;2.10;;;2.00;;
13347;SDS011;6743;49.934;9.138;2024-01-30T07:32:02;2.23;;;2.13;;
13347;SDS011;6743;49.934;9.138;2024-01-30T07:34:29;1.77;;;1.67;;
13347;SDS011;6743;49.934;9.138;2024-01-30T07:36:55;2.57;;;2.47;;
13347;SDS011;6743;49.934;9.138;2024-01-30T07:39:22;4.10;;;2.50;;
13347;SDS011;6743;49.934;9.138;2024-01-30T07:41:48;2.50;;;2.03;;
13347;SDS011;6743;49.934;9.138;2024-01-30T07:44:14;3.73;;;1.97;;
13347;SDS011;6743;49.934;9.138;2024-01-30T07:46:41;2.50;;;1.57;;
13347;SDS011;6743;49.934;9.138;2024-01-30T07:49:07;2.10;;;2.00;;
13347;SDS011;6743;49.934;9.138;2024-01-30T07:51:33;2.73;;;2.37;;
13347;SDS011;6743;49.934;9.138;2024-01-30T07:53:59;2.30;;;2.00;;
13347;SDS011;6743;49.934;9.138;2024-01-30T07:56:25;1.73;;;1.63;;
13347;SDS011;6743;49.934;9.138;2024-01-30T07:58:51;4.07;;;1.97;;
13347;SDS011;6743;49.934;9.138;2024-01-30T08:01:18;2.40;;;2.20;;
13347;SDS011;6743;49.934;9.138;2024-01-30T08:03:45;1.90;;;1.80;;
13347;SDS011;6743;49.934;9.138;2024-01-30T08:06:11;5.53;;;2.83;;
13347;SDS011;6743;49.934;9.138;2024-01-30T08:08:37;3.07;;;2.87;;
13347;SDS011;6743;49.934;9.138;2024-01-30T08:11:03;2.10;;;2.00;;
13347;SDS011;6743;49.934;9.138;2024-01-30T08:13:30;1.97;;;1.87;;
13347;SDS011;6743;49.934;9.138;2024-01-30T08:15:56;3.63;;;2.23;;
13347;SDS011;6743;49.934;9.138;2024-01-30T08:18:22;2.40;;;2.20;;
13347;SDS011;6743;49.934;9.138;2024-01-30T08:20:48;2.50;;;1.87;;
13347;SDS011;6743;49.934;9.138;2024-01-30T08:23:14;2.57;;;2.37;;
13347;SDS011;6743;49.934;9.138;2024-01-30T08:25:40;2.40;;;2.20;;
13347;SDS011;6743;49.934;9.138;2024-01-30T08:28:06;2.50;;;1.93;;
13347;SDS011;6743;49.934;9.138;2024-01-30T08:30:33;2.17;;;2.00;;
13347;SDS011;6743;49.934;9.138;2024-01-30T08:32:59;2.73;;;2.53;;
13347;SDS011;6743;49.934;9.138;2024-01-30T08:35:25;1.87;;;1.63;;
13347;SDS011;6743;49.934;9.138;2024-01-30T08:37:51;2.30;;;2.10;;
13347;SDS011;6743;49.934;9.138;2024-01-30T08:40:19;6.00;;;2.23;;
13347;SDS011;6743;49.934;9.138;2024-01-30T08:42:45;3.10;;;2.80;;
13347;SDS011;6743;49.934;9.138;2024-01-30T08:45:11;4.20;;;2.80;;
13347;SDS011;6743;49.934;9.138;2024-01-30T08:47:37;2.07;;;1.97;;
13347;SDS011;6743;49.934;9.138;2024-01-30T08:50:03;2.40;;;2.17;;
13347;SDS011;6743;49.934;9.138;2024-01-30T08:52:30;2.07;;;1.90;;
13347;SDS011;6743;49.934;9.138;2024-01-30T08:54:57;2.07;;;1.90;;
13347;SDS011;6743;49.934;9.138;2024-01-30T08:57:23;3.47;;;2.60;;
13347;SDS011;6743;49.934;9.138;2024-01-30T08:59:49;4.73;;;3.10;;
13347;SDS011;6743;49.934;9.138;2024-01-30T09:02:15;4.97;;;2.83;;
13347;SDS011;6743;49.934;9.138;2024-01-30T09:04:43;2.20;;;2.10;;
13347;SDS011;6743;49.934;9.138;2024-01-30T09:07:09;2.30;;;2.13;;
13347;SDS011;6743;49.934;9.138;2024-01-30T09:09:35;2.73;;;2.53;;
13347;SDS011;6743;49.934;9.138;2024-01-30T09:12:04;2.90;;;2.63;;
13347;SDS011;6743;49.934;9.138;2024-01-30T09:14:32;2.33;;;2.20;;
13347;SDS011;6743;49.934;9.138;2024-01-30T09:16:58;2.23;;;1.83;;
13347;SDS011;6743;49.934;9.138;2024-01-30T09:19:24;2.07;;;1.87;;
13347;SDS011;6743;49.934;9.138;2024-01-30T09:21:50;7.43;;;3.27;;
13347;SDS011;6743;49.934;9.138;2024-01-30T09:24:16;4.30;;;3.00;;
13347;SDS011;6743;49.934;9.138;2024-01-30T09:26:42;2.87;;;2.67;;
13347;SDS011;6743;49.934;9.138;2024-01-30T09:29:09;3.70;;;2.57;;
13347;SDS011;6743;49.934;9.138;2024-01-30T09:31:35;3.43;;;3.13;;
13347;SDS011;6743;49.934;9.138;2024-01-30T09:34:01;5.03;;;2.87;;
13347;SDS011;6743;49.934;9.138;2024-01-30T09:36:27;3.67;;;2.50;;
13347;SDS011;6743;49.934;9.138;2024-01-30T09:38:53;3.20;;;2.50;;
13347;SDS011;6743;49.934;9.138;2024-01-30T09:41:19;3.00;;;2.63;;
13347;SDS011;6743;49.934;9.138;2024-01-30T09:43:49;3.20;;;2.70;;
13347;SDS011;6743;49.934;9.138;2024-01-30T09:46:17;3.03;;;2.83;;
13347;SDS011;6743;49.934;9.138;2024-01-30T09:48:43;3.17;;;2.67;;
13347;SDS011;6743;49.934;9.138;2024-01-30T09:51:12;4.70;;;3.53;;
13347;SDS011;6743;49.934;9.138;2024-01-30T09:53:40;2.80;;;2.60;;
13347;SDS011;6743;49.934;9.138;2024-01-30T09:56:08;4.03;;;2.93;;
13347;SDS011;6743;49.934;9.138;2024-01-30T09:58:34;2.73;;;2.53;;
13347;SDS011;6743;49.934;9.138;2024-01-30T10:01:00;2.87;;;2.27;;
13347;SDS011;6743;49.934;9.138;2024-01-30T10:03:26;4.77;;;3.33;;
13347;SDS011;6743;49.934;9.138;2024-01-30T10:05:52;4.70;;;2.97;;
13347;SDS011;6743;49.934;9.138;2024-01-30T10:08:20;2.87;;;2.67;;
13347;SDS011;6743;49.934;9.138;2024-01-30T10:10:46;3.80;;;3.17;;
13347;SDS011;6743;49.934;9.138;2024-01-30T10:13:12;3.57;;;2.20;;
13347;SDS011;6743;49.934;9.138;2024-01-30T10:15:38;3.63;;;2.53;;
13347;SDS011;6743;49.934;9.138;2024-01-30T10:18:05;5.30;;;3.73;;
13347;SDS011;6743;49.934;9.138;2024-01-30T10:20:32;7.40;;;3.03;;
13347;SDS011;6743;49.934;9.138;2024-01-30T10:22:59;3.00;;;2.77;;
13347;SDS011;6743;49.934;9.138;2024-01-30T10:25:25;4.47;;;3.03;;
13347;SDS011;6743;49.934;9.138;2024-01-30T10:27:55;5.60;;;3.20;;
13347;SDS011;6743;49.934;9.138;2024-01-30T10:30:21;5.00;;;3.47;;
13347;SDS011;6743;49.934;9.138;2024-01-30T10:32:47;3.07;;;2.87;;
13347;SDS011;6743;49.934;9.138;2024-01-30T10:35:13;3.23;;;2.93;;
13347;SDS011;6743;49.934;9.138;2024-01-30T10:37:40;3.77;;;3.47;;
13347;SDS011;6743;49.934;9.138;2024-01-30T10:40:09;3.47;;;3.23;;
13347;SDS011;6743;49.934;9.138;2024-01-30T10:42:39;3.20;;;2.87;;
13347;SDS011;6743;49.934;9.138;2024-01-30T10:45:09;6.20;;;3.27;;
13347;SDS011;6743;49.934;9.138;2024-01-30T10:47:37;5.60;;;3.70;;
13347;SDS011;6743;49.934;9.138;2024-01-30T10:50:05;3.53;;;3.10;;
13347;SDS011;6743;49.934;9.138;2024-01-30T10:52:33;4.93;;;3.50;;
13347;SDS011;6743;49.934;9.138;2024-01-30T10:55:00;3.63;;;3.33;;
13347;SDS011;6743;49.934;9.138;2024-01-30T10:57:30;4.43;;;3.50;;
13347;SDS011;6743;49.934;9.138;2024-01-30T10:59:59;3.50;;;3.10;;
13347;SDS011;6743;49.934;9.138;2024-01-30T11:02:30;3.83;;;3.37;;
13347;SDS011;6743;49.934;9.138;2024-01-30T11:04:58;3.80;;;3.50;;
13347;SDS011;6743;49.934;9.138;2024-01-30T11:07:25;3.30;;;3.10;;
13347;SDS011;6743;49.934;9.138;2024-01-30T11:09:52;6.27;;;4.20;;
13347;SDS011;6743;49.934;9.138;2024-01-30T11:12:22;5.47;;;2.97;;
13347;SDS011;6743;49.934;9.138;2024-01-30T11:14:50;3.70;;;3.17;;
13347;SDS011;6743;49.934;9.138;2024-01-30T11:17:27;3.97;;;3.33;;
13347;SDS011;6743;49.934;9.138;2024-01-30T11:19:53;7.03;;;3.53;;
13347;SDS011;6743;49.934;9.138;2024-01-30T11:22:20;4.13;;;3.40;;
13347;SDS011;6743;49.934;9.138;2024-01-30T11:24:46;3.90;;;3.40;;
13347;SDS011;6743;49.934;9.138;2024-01-30T11:27:12;7.03;;;3.87;;
13347;SDS011;6743;49.934;9.138;2024-01-30T11:29:41;3.57;;;3.20;;
13347;SDS011;6743;49.934;9.138;2024-01-30T11:32:07;3.53;;;3.13;;
13347;SDS011;6743;49.934;9.138;2024-01-30T11:34:33;5.47;;;3.07;;
13347;SDS011;6743;49.934;9.138;2024-01-30T11:37:01;4.13;;;3.30;;
13347;SDS011;6743;49.934;9.138;2024-01-30T11:39:31;4.33;;;3.20;;
13347;SDS011;6743;49.934;9.138;2024-01-30T11:41:58;3.17;;;2.87;;
13347;SDS011;6743;49.934;9.138;2024-01-30T11:44:25;2.97;;;2.77;;
13347;SDS011;6743;49.934;9.138;2024-01-30T11:46:52;5.47;;;3.70;;
13347;SDS011;6743;49.934;9.138;2024-01-30T11:49:18;3.77;;;3.47;;
13347;SDS011;6743;49.934;9.138;2024-01-30T11:51:44;8.60;;;3.23;;
13347;SDS011;6743;49.934;9.138;2024-01-30T11:54:11;4.63;;;3.20;;
13347;SDS011;6743;49.934;9.138;2024-01-30T11:56:37;4.73;;;3.73;;
13347;SDS011;6743;49.934;9.138;2024-01-30T11:59:03;4.73;;;3.77;;
13347;SDS011;6743;49.934;9.138;2024-01-30T12:01:29;4.23;;;3.93;;
13347;SDS011;6743;49.934;9.138;2024-01-30T12:03:57;3.07;;;2.77;;
13347;SDS011;6743;49.934;9.138;2024-01-30T12:06:23;5.70;;;3.47;;
13347;SDS011;6743;49.934;9.138;2024-01-30T12:08:56;3.90;;;3.00;;
13347;SDS011;6743;49.934;9.138;2024-01-30T12:11:23;3.40;;;3.10;;
13347;SDS011;6743;49.934;9.138;2024-01-30T12:13:49;4.63;;;3.50;;
13347;SDS011;6743;49.934;9.138;2024-01-30T12:16:17;6.70;;;3.80;;
13347;SDS011;6743;49.934;9.138;2024-01-30T12:18:47;4.17;;;3.70;;
13347;SDS011;6743;49.934;9.138;2024-01-30T12:21:16;4.17;;;3.67;;
13347;SDS011;6743;49.934;9.138;2024-01-30T12:23:43;3.70;;;3.37;;
13347;SDS011;6743;49.934;9.138;2024-01-30T12:26:09;3.80;;;3.50;;
13347;SDS011;6743;49.934;9.138;2024-01-30T12:28:36;5.10;;;4.03;;
13347;SDS011;6743;49.934;9.138;2024-01-30T12:31:02;3.00;;;2.80;;
13347;SDS011;6743;49.934;9.138;2024-01-30T12:33:29;3.87;;;3.30;;
13347;SDS011;6743;49.934;9.138;2024-01-30T12:35:56;6.47;;;3.97;;
13347;SDS011;6743;49.934;9.138;2024-01-30T12:38:27;5.97;;;3.90;;
13347;SDS011;6743;49.934;9.138;2024-01-30T12:40:54;6.07;;;4.53;;
13347;SDS011;6743;49.934;9.138;2024-01-30T12:43:20;5.87;;;4.33;;
13347;SDS011;6743;49.934;9.138;2024-01-30T12:45:47;5.30;;;4.43;;
13347;SDS011;6743;49.934;9.138;2024-01-30T12:48:13;5.93;;;4.50;;
13347;SDS011;6743;49.934;9.138;2024-01-30T12:50:39;6.33;;;4.40;;
13347;SDS011;6743;49.934;9.138;2024-01-30T12:53:05;3.83;;;3.40;;
13347;SDS011;6743;49.934;9.138;2024-01-30T12:55:31;4.40;;;3.17;;
13347;SDS011;6743;49.934;9.138;2024-01-30T12:57:58;4.10;;;3.50;;
13347;SDS011;6743;49.934;9.138;2024-01-30T13:00:24;7.57;;;4.10;;
13347;SDS011;6743;49.934;9.138;2024-01-30T13:02:50;10.57;;;4.23;;
13347;SDS011;6743;49.934;9.138;2024-01-30T13:05:16;4.63;;;3.37;;
13347;SDS011;6743;49.934;9.138;2024-01-30T13:07:42;8.93;;;3.53;;
13347;SDS011;6743;49.934;9.138;2024-01-30T13:10:08;4.83;;;4.40;;
13347;SDS011;6743;49.934;9.138;2024-01-30T13:12:35;4.40;;;3.37;;
13347;SDS011;6743;49.934;9.138;2024-01-30T13:15:02;5.43;;;3.60;;
13347;SDS011;6743;49.934;9.138;2024-01-30T13:17:29;5.17;;;4.43;;
13347;SDS011;6743;49.934;9.138;2024-01-30T13:19:55;4.57;;;3.70;;
13347;SDS011;6743;49.934;9.138;2024-01-30T13:22:22;7.70;;;4.00;;
13347;SDS011;6743;49.934;9.138;2024-01-30T13:24:49;5.43;;;4.13;;
13347;SDS011;6743;49.934;9.138;2024-01-30T13:27:16;9.33;;;3.97;;
13347;SDS011;6743;49.934;9.138;2024-01-30T13:29:42;5.17;;;3.83;;
13347;SDS011;6743;49.934;9.138;2024-01-30T13:32:08;5.20;;;3.87;;
13347;SDS011;6743;49.934;9.138;2024-01-30T13:34:34;5.33;;;4.10;;
13347;SDS011;6743;49.934;9.138;2024-01-30T13:37:00;6.87;;;4.10;;
13347;SDS011;6743;49.934;9.138;2024-01-30T13:39:26;8.77;;;4.13;;
13347;SDS011;6743;49.934;9.138;2024-01-30T13:41:54;6.30;;;3.93;;
13347;SDS011;6743;49.934;9.138;2024-01-30T13:44:20;4.60;;;3.72;;
13347;SDS011;6743;49.934;9.138;2024-01-30T13:46:46;4.32;;;3.17;;
13347;SDS011;6743;49.934;9.138;2024-01-30T13:49:13;5.50;;;4.12;;
13347;SDS011;6743;49.934;9.138;2024-01-30T13:51:39;3.28;;;2.95;;
13347;SDS011;6743;49.934;9.138;2024-01-30T13:54:04;3.77;;;3.13;;
13347;SDS011;6743;49.934;9.138;2024-01-30T13:56:30;6.60;;;4.00;;
13347;SDS011;6743;49.934;9.138;2024-01-30T13:58:56;4.57;;;3.40;;
13347;SDS011;6743;49.934;9.138;2024-01-30T14:01:23;4.47;;;3.37;;
13347;SDS011;6743;49.934;9.138;2024-01-30T14:03:49;6.50;;;3.65;;
13347;SDS011;6743;49.934;9.138;2024-01-30T14:06:15;3.75;;;3.45;;
13347;SDS011;6743;49.934;9.138;2024-01-30T14:08:42;4.47;;;3.37;;
13347;SDS011;6743;49.934;9.138;2024-01-30T14:11:08;3.75;;;3.45;;
13347;SDS011;6743;49.934;9.138;2024-01-30T14:13:34;4.40;;;3.53;;
13347;SDS011;6743;49.934;9.138;2024-01-30T14:15:59;5.60;;;3.97;;
13347;SDS011;6743;49.934;9.138;2024-01-30T14:18:26;4.22;;;3.70;;
13347;SDS011;6743;49.934;9.138;2024-01-30T14:20:52;6.15;;;4.25;;
13347;SDS011;6743;49.934;9.138;2024-01-30T14:23:19;8.60;;;4.47;;
13347;SDS011;6743;49.934;9.138;2024-01-30T14:25:45;5.33;;;3.90;;
13347;SDS011;6743;49.934;9.138;2024-01-30T14:28:11;4.30;;;3.33;;
13347;SDS011;6743;49.934;9.138;2024-01-30T14:30:37;4.22;;;3.83;;
13347;SDS011;6743;49.934;9.138;2024-01-30T14:33:03;6.87;;;4.30;;
13347;SDS011;6743;49.934;9.138;2024-01-30T14:35:29;6.53;;;5.03;;
13347;SDS011;6743;49.934;9.138;2024-01-30T14:37:56;7.25;;;4.25;;
13347;SDS011;6743;49.934;9.138;2024-01-30T14:40:22;4.47;;;3.87;;
13347;SDS011;6743;49.934;9.138;2024-01-30T14:42:48;4.62;;;3.75;;
13347;SDS011;6743;49.934;9.138;2024-01-30T14:45:15;6.32;;;4.15;;
13347;SDS011;6743;49.934;9.138;2024-01-30T14:47:41;5.43;;;4.30;;
13347;SDS011;6743;49.934;9.138;2024-01-30T14:50:08;7.62;;;5.10;;
13347;SDS011;6743;49.934;9.138;2024-01-30T14:52:34;7.15;;;4.90;;
13347;SDS011;6743;49.934;9.138;2024-01-30T14:55:01;5.78;;;4.15;;
13347;SDS011;6743;49.934;9.138;2024-01-30T14:57:27;8.02;;;5.57;;